Flight Track Log - Related Links

Times and Time Zones

All times are in EDT time to prevent confusion due to time zone crossing. See the UAL33 flight status page for this flight to view local times or setup timezone preferences in your user account.

Time Position Orientation Groundspeed Altitude Reporting Facility
EDT Latitude Longitude Course Direction KTS MPH feet Rate Location/Type
Fri 03:19:00 PM 34.1347 -118.0640 59° Northeast  Level FlightAware Approximate
Fri 03:19:57 PM 33.8280 -118.5640 59° Northeast 280 322 8,100  Level FlightAware ADS-B
Fri 03:20:00 PM 34.2028 -117.9279 59° Northeast  Level FlightAware Approximate
Fri 03:20:12 PM 33.8170 -118.5320 112° Southeast 278 320 9,100  Level FlightAware ADS-B
Fri 03:20:37 PM 33.8310 -118.4870 69° East 285 328 10,200 1,867 Climbing FlightAware ADS-B
Fri 03:20:57 PM 33.8510 -118.4700 35° Northeast 302 348 10,500 1,500 Climbing FlightAware ADS-B
Fri 03:21:37 PM 33.9080 -118.4370 26° Northeast 342 394 11,700 2,073 Climbing FlightAware ADS-B
Fri 03:21:52 PM 33.9290 -118.4190 35° Northeast 351 404 12,400 2,618 Climbing FlightAware ADS-B
Fri 03:22:32 PM 33.9680 -118.3540 54° Northeast 367 422 14,100 2,612 Climbing FlightAware ADS-B
Fri 03:23:17 PM 34.0100 -118.2780 56° Northeast 375 432 16,100 2,471 Climbing FlightAware ADS-B
Fri 03:23:57 PM 34.0490 -118.2070 56° Northeast 386 444 17,600 2,250 Climbing FlightAware ADS-B
Fri 03:24:37 PM 34.0900 -118.1350 55° Northeast 395 455 19,100 2,259 Climbing FlightAware ADS-B
Fri 03:25:22 PM 34.1380 -118.0490 56° Northeast 406 467 20,800 2,047 Climbing FlightAware ADS-B
Fri 03:26:02 PM 34.1810 -117.9740 55° Northeast 416 479 22,000 1,800 Climbing FlightAware ADS-B
Fri 03:26:42 PM 34.2240 -117.8960 56° Northeast 424 488 23,200 1,765 Climbing FlightAware ADS-B
Fri 03:27:27 PM 34.2730 -117.8090 56° Northeast 432 497 24,500 1,835 Climbing FlightAware ADS-B
Fri 03:28:07 PM 34.3180 -117.7290 56° Northeast 438 504 25,800 1,835 Climbing FlightAware ADS-B
Fri 03:28:52 PM 34.3710 -117.6340 56° Northeast 446 513 27,100 1,765 Climbing FlightAware ADS-B
Fri 03:29:32 PM 34.4170 -117.5510 56° Northeast 446 513 28,300 1,650 Climbing FlightAware ADS-B
Fri 03:30:12 PM 34.4620 -117.4690 56° Northeast 452 520 29,300 1,412 Climbing FlightAware ADS-B
Fri 03:30:57 PM 34.5150 -117.3740 56° Northeast 459 528 30,300 1,341 Climbing FlightAware ADS-B
Fri 03:31:37 PM 34.5620 -117.2890 56° Northeast 461 531 31,200 1,765 Climbing FlightAware ADS-B
Fri 03:32:22 PM 34.6140 -117.1940 56° Northeast 452 520 32,800 1,271 Climbing FlightAware ADS-B
Fri 03:33:02 PM 34.6630 -117.1060 56° Northeast 456 525 33,000 150 Climbing FlightAware ADS-B
Fri 03:33:42 PM 34.7100 -117.0200 56° Northeast 457 526 33,000  Level FlightAware ADS-B
Fri 03:34:27 PM 34.7600 -116.9290 56° Northeast 457 526 33,000  Level FlightAware ADS-B
Fri 03:35:07 PM 34.8080 -116.8410 56° Northeast 457 526 33,000  Level FlightAware ADS-B
Fri 03:35:52 PM 34.8580 -116.7500 56° Northeast 456 525 33,000  Level FlightAware ADS-B
Fri 03:36:32 PM 34.9070 -116.6600 56° Northeast 456 525 33,000  Level FlightAware ADS-B
Fri 03:37:17 PM 34.9600 -116.5670 55° Northeast 451 519 33,000  Level FlightAware ADS-B
Fri 03:37:52 PM 35.0090 -116.4970 49° Northeast 454 522 33,000 225 Level FlightAware ADS-B
Fri 03:38:37 PM 35.0500 -116.3900 65° Northeast 464 534 33,300 1,000 Climbing FlightAware ADS-B
Fri 03:39:22 PM 35.0770 -116.2780 74° East 462 532 34,500 1,412 Climbing FlightAware ADS-B
Fri 03:40:02 PM 35.1000 -116.1800 74° East 462 532 35,300 1,271 Climbing FlightAware ADS-B
Fri 03:40:47 PM 35.1270 -116.0670 74° East 459 528 36,300 1,129 Climbing FlightAware ADS-B
Fri 03:41:27 PM 35.1500 -115.9660 74° East 461 531 36,900 525 Climbing FlightAware ADS-B
Fri 03:42:07 PM 35.1720 -115.8690 74° East 462 532 37,000 71 Climbing FlightAware ADS-B
Fri 03:42:52 PM 35.2000 -115.7510 74° East 466 536 37,000  Level FlightAware ADS-B
Fri 03:43:32 PM 35.2220 -115.6520 75° East 468 539 37,000  Level FlightAware ADS-B
Fri 03:44:17 PM 35.2480 -115.5350 75° East 468 539 37,000  Level FlightAware ADS-B
Fri 03:44:57 PM 35.2710 -115.4350 74° East 468 539 37,000  Level FlightAware ADS-B
Fri 03:45:42 PM 35.2970 -115.3210 74° East 468 539 37,000  Level FlightAware ADS-B
Fri 03:46:22 PM 35.3200 -115.2170 75° East 467 537 37,000  Level FlightAware ADS-B
Fri 03:47:02 PM 35.3440 -115.1130 74° East 467 537 37,000  Level FlightAware ADS-B
Fri 03:48:02 PM 35.3770 -114.9620 75° East 465 535 37,000  Level FlightAware ADS-B
Fri 03:48:42 PM 35.4000 -114.8610 74° East 463 533 37,000  Level FlightAware ADS-B
Fri 03:49:22 PM 35.4230 -114.7580 75° East 460 529 37,000  Level FlightAware ADS-B
Fri 03:50:07 PM 35.4480 -114.6480 74° East 459 528 37,000  Level FlightAware ADS-B
Fri 03:50:47 PM 35.4700 -114.5480 75° East 458 527 37,000  Level FlightAware ADS-B
Fri 03:51:27 PM 35.4920 -114.4480 75° East 458 527 37,000  Level FlightAware ADS-B
Fri 03:52:12 PM 35.5170 -114.3330 75° East 457 526 37,000 -353 Level FlightAware ADS-B
Fri 03:52:52 PM 35.5390 -114.2370 74° East 458 527 36,500 -1,059 Descending FlightAware ADS-B
Fri 03:53:37 PM 35.5640 -114.1220 75° East 460 529 35,500 -1,059 Descending FlightAware ADS-B
Fri 03:54:17 PM 35.5860 -114.0200 75° East 456 525 35,000 -353 Descending FlightAware ADS-B
Fri 03:55:02 PM 35.6100 -113.9070 75° East 454 522 35,000  Level FlightAware ADS-B
Fri 03:55:42 PM 35.6320 -113.8060 75° East 455 524 35,000  Level FlightAware ADS-B
Fri 03:56:22 PM 35.6540 -113.7070 75° East 458 527 35,000  Level FlightAware ADS-B
Fri 03:57:07 PM 35.6770 -113.5960 76° East 461 531 35,000  Level FlightAware ADS-B
Fri 03:57:47 PM 35.6990 -113.4950 75° East 463 533 35,000  Level FlightAware ADS-B
Fri 03:58:32 PM 35.7230 -113.3800 76° East 464 534 35,000  Level FlightAware ADS-B
Fri 03:59:12 PM 35.7450 -113.2770 75° East 465 535 35,000  Level FlightAware ADS-B
Fri 03:59:52 PM 35.7670 -113.1720 75° East 466 536 35,000  Level FlightAware ADS-B
Fri 04:00:17 PM 35.7800 -113.1080 76° East 465 535 35,000  Level FlightAware ADS-B
Fri 04:01:02 PM 35.8030 -112.9960 76° East 464 534 35,000  Level FlightAware ADS-B
Fri 04:01:47 PM 35.8270 -112.8800 76° East 462 532 35,000  Level FlightAware ADS-B
Fri 04:02:27 PM 35.8480 -112.7760 76° East 461 531 35,000  Level FlightAware ADS-B
Fri 04:03:12 PM 35.8710 -112.6630 76° East 461 531 35,000  Level FlightAware ADS-B
Fri 04:03:52 PM 35.8920 -112.5620 76° East 459 528 35,000  Level FlightAware ADS-B
Fri 04:04:37 PM 35.9150 -112.4480 76° East 458 527 35,000  Level FlightAware ADS-B
Fri 04:05:17 PM 35.9360 -112.3430 76° East 458 527 35,000  Level FlightAware ADS-B
Fri 04:05:57 PM 35.9550 -112.2460 76° East 456 525 35,000  Level FlightAware ADS-B
Fri 04:06:42 PM 35.9770 -112.1350 76° East 456 525 35,000  Level FlightAware ADS-B
Fri 04:07:22 PM 35.9970 -112.0320 76° East 456 525 35,000  Level FlightAware ADS-B
Fri 04:08:07 PM 36.0180 -111.9280 76° East 456 525 35,000  Level FlightAware ADS-B
Fri 04:08:47 PM 36.0350 -111.8420 76° East 456 525 35,000  Level FlightAware ADS-B
Fri 04:09:27 PM 36.0530 -111.7560 75° East 456 525 35,000  Level FlightAware ADS-B
Fri 04:10:07 PM 36.0700 -111.6700 76° East 456 525 35,000  Level FlightAware ADS-B
Fri 04:10:47 PM 36.0870 -111.5840 76° East 456 525 35,000  Level FlightAware ADS-B
Fri 04:11:27 PM 36.1050 -111.4980 75° East 456 525 35,000  Level FlightAware ADS-B
Fri 04:12:17 PM 36.1260 -111.3900 76° East 456 525 35,000  Level FlightAware ADS-B
Fri 04:12:57 PM 36.1440 -111.3040 75° East 456 525 35,000  Level FlightAware ADS-B
Fri 04:13:37 PM 36.1610 -111.2180 76° East 456 525 35,000  Level FlightAware ADS-B
Fri 04:14:17 PM 36.1780 -111.1310 76° East 456 525 35,000  Level FlightAware ADS-B
Fri 04:15:07 PM 36.2000 -111.0240 76° East 456 525 35,000  Level FlightAware ADS-B
Fri 04:15:47 PM 36.2170 -110.9370 76° East 456 525 35,000  Level FlightAware ADS-B
Fri 04:16:27 PM 36.2350 -110.8510 75° East 456 525 35,000  Level FlightAware ADS-B
Fri 04:17:07 PM 36.2520 -110.7650 76° East 456 525 35,000  Level FlightAware ADS-B
Fri 04:17:46 PM 36.2878 -110.4739 76° East 461 531 35,000  Level Denver Center
Fri 04:18:48 PM 36.3261 -110.2900 75° East 461 531 35,000  Level Denver Center
Fri 04:19:50 PM 36.3578 -110.1364 76° East 462 532 35,000  Level Denver Center
Fri 04:20:52 PM 36.3889 -109.9797 76° East 462 532 35,000  Level Denver Center
Fri 04:21:54 PM 36.4181 -109.8328 76° East 460 529 35,000  Level Denver Center
Fri 04:22:56 PM 36.4514 -109.6592 77° East 462 532 35,000  Level Denver Center
Fri 04:23:58 PM 36.4806 -109.5111 76° East 461 531 35,000  Level Denver Center
Fri 04:25:00 PM 36.5139 -109.3383 76° East 460 529 35,000  Level Denver Center
Fri 04:26:02 PM 36.5431 -109.1897 76° East 460 529 35,000  Level Denver Center
Fri 04:27:04 PM 36.5764 -109.0178 76° East 457 526 35,000  Level Denver Center
Fri 04:28:06 PM 36.6047 -108.8700 77° East 456 525 35,000  Level Denver Center
Fri 04:29:08 PM 36.6319 -108.7219 77° East 457 526 35,000  Level Denver Center
Fri 04:30:10 PM 36.6647 -108.5503 77° East 454 522 35,000  Level Denver Center
Fri 04:31:12 PM 36.6925 -108.4008 77° East 459 528 35,000  Level Denver Center
Fri 04:32:14 PM 36.7250 -108.2219 77° East 470 541 35,000  Level Denver Center
Fri 04:33:16 PM 36.7556 -108.0711 76° East 470 541 35,000  Level Denver Center
Fri 04:34:18 PM 36.8025 -107.9011 71° East 466 536 35,000  Level Denver Center
Fri 04:35:20 PM 36.8422 -107.7556 71° East 462 532 35,000  Level Denver Center
Fri 04:36:22 PM 36.8869 -107.5864 72° East 461 531 35,000  Level Denver Center
Fri 04:37:24 PM 36.9272 -107.4417 71° East 460 529 35,000  Level Denver Center
Fri 04:38:26 PM 36.9656 -107.2953 72° East 462 532 35,000  Level Denver Center
Fri 04:39:28 PM 37.0108 -107.1250 72° East 463 533 35,000  Level Denver Center
Fri 04:40:30 PM 37.0497 -106.9803 71° East 460 529 35,000  Level Denver Center
Fri 04:41:32 PM 37.0933 -106.8075 72° East 464 534 35,000  Level Denver Center
Fri 04:42:34 PM 37.1344 -106.6622 70° East 463 533 35,000  Level Denver Center
Fri 04:43:36 PM 37.1797 -106.4900 72° East 465 535 35,000  Level Denver Center
Fri 04:44:38 PM 37.2178 -106.3422 72° East 466 536 35,000  Level Denver Center
Fri 04:45:40 PM 37.2619 -106.1683 72° East 468 539 35,000  Level Denver Center
Fri 04:51:21 PM 37.4253 -105.2380 72° East 486 559 35,000  Level FlightAware ADS-B
Fri 04:51:51 PM 37.4364 -105.1520 81° East 487 560 35,000  Level FlightAware ADS-B
Fri 04:52:22 PM 37.4474 -105.0670 81° East 490 564 35,000  Level FlightAware ADS-B
Fri 04:52:53 PM 37.4584 -104.9810 81° East 491 565 35,000  Level FlightAware ADS-B
Fri 04:53:23 PM 37.4694 -104.8940 81° East 492 566 35,000  Level FlightAware ADS-B
Fri 04:53:55 PM 37.4807 -104.8050 81° East 493 567 35,000  Level FlightAware ADS-B
Fri 04:54:36 PM 37.4953 -104.6880 81° East 494 568 35,000  Level FlightAware ADS-B
Fri 04:55:58 PM 37.5245 -104.4540 81° East 496 571 35,000  Level FlightAware ADS-B
Fri 04:56:35 PM 37.5374 -104.3500 81° East 497 572 35,000  Level FlightAware ADS-B
Fri 04:57:09 PM 37.5494 -104.2510 81° East 497 572 35,000  Level FlightAware ADS-B
Fri 04:57:39 PM 37.5598 -104.1640 81° East 498 573 35,000  Level FlightAware ADS-B
Fri 04:58:10 PM 37.5705 -104.0770 81° East 498 573 35,000  Level FlightAware ADS-B
Fri 04:58:47 PM 37.5830 -103.9720 81° East 498 573 35,000  Level FlightAware ADS-B
Fri 04:59:33 PM 37.5987 -103.8410 81° East 498 573 35,000  Level FlightAware ADS-B
Fri 05:00:04 PM 37.6093 -103.7510 82° East 498 573 35,000  Level FlightAware ADS-B
Fri 05:00:35 PM 37.6198 -103.6610 82° East 495 570 35,000  Level FlightAware ADS-B
Fri 05:01:07 PM 37.6302 -103.5720 82° East 495 570 35,000  Level FlightAware ADS-B
Fri 05:01:38 PM 37.6407 -103.4820 82° East 495 570 35,000  Level FlightAware ADS-B
Fri 05:02:09 PM 37.6510 -103.3940 82° East 494 568 35,000  Level FlightAware ADS-B
Fri 05:02:40 PM 37.6609 -103.3070 82° East 493 567 35,000  Level FlightAware ADS-B
Fri 05:03:10 PM 37.6709 -103.2200 82° East 492 566 35,000  Level FlightAware ADS-B
Fri 05:03:40 PM 37.6805 -103.1350 82° East 492 566 35,000  Level FlightAware ADS-B
Fri 05:04:11 PM 37.6903 -103.0490 82° East 492 566 35,000  Level FlightAware ADS-B
Fri 05:04:41 PM 37.6999 -102.9630 82° East 493 567 35,000  Level FlightAware ADS-B
Fri 05:05:11 PM 37.7095 -102.8770 82° East 493 567 35,000  Level FlightAware ADS-B
Fri 05:05:42 PM 37.7191 -102.7900 82° East 494 568 35,000  Level FlightAware ADS-B
Fri 05:06:12 PM 37.7287 -102.7030 82° East 495 570 35,000  Level FlightAware ADS-B
Fri 05:06:42 PM 37.7382 -102.6170 82° East 495 570 35,000  Level FlightAware ADS-B
Fri 05:07:13 PM 37.7475 -102.5310 82° East 496 571 35,000  Level FlightAware ADS-B
Fri 05:07:52 PM 37.7596 -102.4170 82° East 497 572 35,000  Level FlightAware ADS-B
Fri 05:08:22 PM 37.7689 -102.3310 82° East 498 573 35,000  Level FlightAware ADS-B
Fri 05:09:24 PM 37.7811 -102.1781 82° East 495 570 35,000  Level Denver Center
Fri 05:10:26 PM 37.7972 -102.0136 83° East 494 568 35,000 339 Level Denver Center
Fri 05:11:28 PM 37.8136 -101.8475 83° East 497 572 35,700 968 Climbing Denver Center
Fri 05:12:30 PM 37.8311 -101.6550 83° East 494 568 37,000 619 Climbing Denver Center
Fri 05:13:34 PM 37.8497 -101.4675 83° East 483 556 37,000  Level Kansas City Center
Fri 05:14:38 PM 37.8658 -101.3039 83° East 486 559 37,000  Level Kansas City Center
Fri 05:15:40 PM 37.8808 -101.1356 84° East 496 571 37,000  Level Kansas City Center
Fri 05:16:37 PM 37.8994 -100.9369 83° East 503 579 37,000  Level Denver Center
Fri 05:17:39 PM 37.9153 -100.7653 83° East 505 581 37,000  Level Denver Center
Fri 05:18:47 PM 37.9322 -100.5644 84° East 508 585 37,000  Level Kansas City Center
Fri 05:19:47 PM 37.9450 -100.3953 84° East 505 581 37,000  Level Kansas City Center
Fri 05:20:49 PM 37.9597 -100.1975 85° East 502 578 37,000  Level Kansas City Center
Fri 05:21:52 PM 37.9736 -100.0294 84° East 501 577 37,000  Level Kansas City Center
Fri 05:22:53 PM 37.9853 -99.8625 85° East 498 573 37,000  Level Kansas City Center
Fri 05:23:55 PM 38.0008 -99.6678 84° East 496 571 37,000  Level Kansas City Center
Fri 05:24:58 PM 38.0128 -99.5022 85° East 493 567 37,000  Level Kansas City Center
Fri 05:25:59 PM 38.0269 -99.3078 85° East 495 570 37,000  Level Kansas City Center
Fri 05:27:03 PM 38.0383 -99.1342 85° East 494 568 37,000  Level Kansas City Center
Fri 05:33:17 PM 38.1310 -98.0060 85° East 507 583 37,000  Level FlightAware ADS-B
Fri 05:33:47 PM 38.1360 -97.9210 86° East 508 585 37,000  Level FlightAware ADS-B
Fri 05:34:32 PM 38.1440 -97.7890 86° East 510 587 37,000  Level FlightAware ADS-B
Fri 05:35:22 PM 38.1530 -97.6370 86° East 511 588 37,000  Level FlightAware ADS-B
Fri 05:36:02 PM 38.1600 -97.5120 86° East 511 588 37,000  Level FlightAware ADS-B
Fri 05:36:47 PM 38.1680 -97.3770 86° East 513 590 37,000  Level FlightAware ADS-B
Fri 05:37:27 PM 38.1740 -97.2580 86° East 513 590 37,000  Level FlightAware ADS-B
Fri 05:38:12 PM 38.1810 -97.1300 86° East 514 592 37,000  Level FlightAware ADS-B
Fri 05:38:47 PM 38.1870 -97.0220 86° East 514 592 37,000  Level FlightAware ADS-B
Fri 05:39:32 PM 38.1940 -96.8830 86° East 515 593 37,000  Level FlightAware ADS-B
Fri 05:40:17 PM 38.2000 -96.7620 86° East 515 593 37,000  Level FlightAware ADS-B
Fri 05:40:57 PM 38.2060 -96.6590 86° East 515 593 37,000  Level FlightAware ADS-B
Fri 05:41:37 PM 38.2120 -96.5560 86° East 515 593 37,000  Level FlightAware ADS-B
Fri 05:42:17 PM 38.2170 -96.4540 86° East 515 593 37,000  Level FlightAware ADS-B
Fri 05:43:07 PM 38.2240 -96.3250 86° East 515 593 37,000  Level FlightAware ADS-B
Fri 05:43:37 PM 38.2280 -96.2480 86° East 515 593 37,000  Level FlightAware ADS-B
Fri 05:44:27 PM 38.2360 -96.1190 85° East 515 593 37,000  Level FlightAware ADS-B
Fri 05:45:07 PM 38.2410 -96.0160 86° East 515 593 37,000  Level FlightAware ADS-B
Fri 05:45:47 PM 38.2470 -95.9130 86° East 515 593 37,000  Level FlightAware ADS-B
Fri 05:46:47 PM 38.2520 -95.5670 89° East 516 594 37,000  Level FlightAware ADS-B
Fri 05:47:22 PM 38.2560 -95.4650 87° East 516 594 37,000  Level FlightAware ADS-B
Fri 05:48:12 PM 38.2620 -95.3070 87° East 516 594 37,000  Level FlightAware ADS-B
Fri 05:48:57 PM 38.2660 -95.1730 88° East 516 594 37,000  Level FlightAware ADS-B
Fri 05:49:37 PM 38.2710 -95.0530 87° East 516 594 37,000  Level FlightAware ADS-B
Fri 05:50:17 PM 38.2750 -94.9300 88° East 516 594 37,000  Level FlightAware ADS-B
Fri 05:51:02 PM 38.2790 -94.7940 88° East 516 594 37,000  Level FlightAware ADS-B
Fri 05:51:42 PM 38.2830 -94.6710 88° East 516 594 37,000  Level FlightAware ADS-B
Fri 05:52:27 PM 38.2870 -94.5380 88° East 516 594 37,000  Level FlightAware ADS-B
Fri 05:53:07 PM 38.3010 -94.4170 82° East 515 593 37,000  Level FlightAware ADS-B
Fri 05:53:42 PM 38.3190 -94.3120 78° East 516 594 37,000  Level FlightAware ADS-B
Fri 05:54:32 PM 38.3460 -94.1650 77° East 516 594 37,000  Level FlightAware ADS-B
Fri 05:55:12 PM 38.3680 -94.0430 77° East 516 594 37,000  Level FlightAware ADS-B
Fri 05:55:57 PM 38.3900 -93.9160 77° East 516 594 37,000  Level FlightAware ADS-B
Fri 05:56:37 PM 38.4110 -93.7980 77° East 517 595 37,000  Level FlightAware ADS-B
Fri 05:57:17 PM 38.4320 -93.6800 77° East 517 595 37,000  Level FlightAware ADS-B
Fri 05:58:02 PM 38.4560 -93.5440 77° East 516 594 37,000  Level FlightAware ADS-B
Fri 05:58:42 PM 38.4750 -93.4290 78° East 516 594 37,000  Level FlightAware ADS-B
Fri 05:59:22 PM 38.4970 -93.3030 77° East 515 593 37,000  Level FlightAware ADS-B
Fri 06:00:07 PM 38.5190 -93.1720 78° East 516 594 37,000  Level FlightAware ADS-B
Fri 06:00:47 PM 38.5390 -93.0640 77° East 516 594 37,000  Level FlightAware ADS-B
Fri 06:01:27 PM 38.5570 -92.9630 77° East 516 594 37,000  Level FlightAware ADS-B
Fri 06:02:07 PM 38.5750 -92.8620 77° East 516 594 37,000  Level FlightAware ADS-B
Fri 06:02:47 PM 38.5940 -92.7610 76° East 516 594 37,000  Level FlightAware ADS-B
Fri 06:03:37 PM 38.6160 -92.6340 77° East 516 594 37,000  Level FlightAware ADS-B
Fri 06:04:17 PM 38.6350 -92.5330 76° East 516 594 37,000  Level FlightAware ADS-B
Fri 06:04:57 PM 38.6530 -92.4320 77° East 516 594 37,000  Level FlightAware ADS-B
Fri 06:05:37 PM 38.6710 -92.3300 77° East 516 594 37,000  Level FlightAware ADS-B
Fri 06:06:17 PM 38.6890 -92.2290 77° East 516 594 37,000  Level FlightAware ADS-B
Fri 06:07:07 PM 38.7120 -92.1020 77° East 516 594 37,000  Level FlightAware ADS-B
Fri 06:07:47 PM 38.7300 -92.0010 77° East 516 594 37,000  Level FlightAware ADS-B
Fri 06:08:27 PM 38.7490 -91.9000 76° East 516 594 37,000  Level FlightAware ADS-B
Fri 06:09:07 PM 38.7670 -91.7980 77° East 516 594 37,000  Level FlightAware ADS-B
Fri 06:09:47 PM 38.7850 -91.6970 77° East 516 594 37,000  Level FlightAware ADS-B
Fri 06:10:32 PM 38.8270 -91.2590 83° East 537 618 37,000  Level FlightAware ADS-B
Fri 06:11:17 PM 38.8480 -91.1210 79° East 538 619 37,000  Level FlightAware ADS-B
Fri 06:11:57 PM 38.8670 -90.9970 79° East 539 620 37,000  Level FlightAware ADS-B
Fri 06:12:42 PM 38.8860 -90.8710 79° East 539 620 37,000  Level FlightAware ADS-B
Fri 06:13:22 PM 38.9060 -90.7360 79° East 540 621 37,000  Level FlightAware ADS-B
Fri 06:14:02 PM 38.9250 -90.6040 79° East 541 623 37,000  Level FlightAware ADS-B
Fri 06:14:42 PM 38.9440 -90.4750 79° East 541 623 37,000  Level FlightAware ADS-B
Fri 06:15:27 PM 38.9630 -90.3420 80° East 540 621 37,000  Level FlightAware ADS-B
Fri 06:16:12 PM 38.9840 -90.1940 80° East 540 621 37,000  Level FlightAware ADS-B
Fri 06:16:52 PM 39.0020 -90.0720 79° East 541 623 37,000  Level FlightAware ADS-B
Fri 06:17:37 PM 39.0240 -89.9410 78° East 542 624 37,000  Level FlightAware ADS-B
Fri 06:18:17 PM 39.0570 -89.8130 72° East 545 627 37,000  Level FlightAware ADS-B
Fri 06:18:57 PM 39.0880 -89.6800 73° East 545 627 37,000  Level FlightAware ADS-B
Fri 06:19:42 PM 39.1200 -89.5460 73° East 544 626 37,000  Level FlightAware ADS-B
Fri 06:20:27 PM 39.1530 -89.4070 73° East 546 628 37,000  Level FlightAware ADS-B
Fri 06:21:07 PM 39.1820 -89.2860 73° East 546 628 37,000  Level FlightAware ADS-B
Fri 06:21:47 PM 39.2130 -89.1530 73° East 547 629 37,000  Level FlightAware ADS-B
Fri 06:22:32 PM 39.2450 -89.0170 73° East 547 629 37,000  Level FlightAware ADS-B
Fri 06:23:12 PM 39.2730 -88.8920 74° East 547 629 37,000  Level FlightAware ADS-B
Fri 06:23:47 PM 39.3000 -88.7760 73° East 549 632 37,000  Level FlightAware ADS-B
Fri 06:24:32 PM 39.3310 -88.6390 74° East 549 632 37,000  Level FlightAware ADS-B
Fri 06:25:17 PM 39.3650 -88.4910 73° East 549 632 37,000  Level FlightAware ADS-B
Fri 06:26:02 PM 39.3930 -88.3660 74° East 548 631 37,000  Level FlightAware ADS-B
Fri 06:26:37 PM 39.4200 -88.2470 74° East 545 627 37,000  Level FlightAware ADS-B
Fri 06:27:27 PM 39.4560 -88.0850 74° East 540 621 37,000  Level FlightAware ADS-B
Fri 06:28:07 PM 39.4840 -87.9600 74° East 538 619 37,000  Level FlightAware ADS-B
Fri 06:28:47 PM 39.5100 -87.8430 74° East 536 617 37,000  Level FlightAware ADS-B
Fri 06:29:32 PM 39.5400 -87.7040 74° East 535 616 37,000  Level FlightAware ADS-B
Fri 06:30:12 PM 39.5670 -87.5810 74° East 534 615 37,000  Level FlightAware ADS-B
Fri 06:30:57 PM 39.5980 -87.4390 74° East 533 613 37,000  Level FlightAware ADS-B
Fri 06:31:37 PM 39.6240 -87.3180 74° East 532 612 37,000  Level FlightAware ADS-B
Fri 06:32:17 PM 39.6510 -87.1930 74° East 532 612 37,000  Level FlightAware ADS-B
Fri 06:33:02 PM 39.6800 -87.0580 74° East 534 615 37,000  Level FlightAware ADS-B
Fri 06:33:37 PM 39.7000 -86.9640 75° East 535 616 37,000  Level FlightAware ADS-B
Fri 06:34:22 PM 39.7320 -86.8150 74° East 535 616 37,000  Level FlightAware ADS-B
Fri 06:35:07 PM 39.7620 -86.6700 75° East 537 618 37,000  Level FlightAware ADS-B
Fri 06:35:47 PM 39.7870 -86.5490 75° East 538 619 37,000  Level FlightAware ADS-B
Fri 06:36:32 PM 39.8180 -86.4030 75° East 540 621 37,000  Level FlightAware ADS-B
Fri 06:37:27 PM 39.8530 -86.2370 75° East 544 626 37,000  Level FlightAware ADS-B
Fri 06:38:07 PM 39.8810 -86.1030 75° East 545 627 37,000  Level FlightAware ADS-B
Fri 06:38:52 PM 39.9100 -85.9660 75° East 548 631 37,000  Level FlightAware ADS-B
Fri 06:39:32 PM 39.9380 -85.8360 74° East 549 632 37,000  Level FlightAware ADS-B
Fri 06:40:22 PM 39.9690 -85.6910 74° East 550 633 37,000  Level FlightAware ADS-B
Fri 06:41:12 PM 40.0020 -85.5290 75° East 552 635 37,000  Level FlightAware ADS-B
Fri 06:41:42 PM 40.0240 -85.4220 75° East 551 634 37,000  Level FlightAware ADS-B
Fri 06:42:37 PM 40.0670 -85.2460 72° East 556 640 37,000  Level FlightAware ADS-B
Fri 06:43:17 PM 40.1070 -85.1280 66° East 560 644 37,000  Level FlightAware ADS-B
Fri 06:43:52 PM 40.1500 -85.0180 63° Northeast 560 644 37,000  Level FlightAware ADS-B
Fri 06:44:42 PM 40.2080 -84.8670 63° Northeast 559 643 37,000  Level FlightAware ADS-B
Fri 06:45:22 PM 40.2520 -84.7530 63° Northeast 559 643 37,000  Level FlightAware ADS-B
Fri 06:46:07 PM 40.3090 -84.6070 63° Northeast 559 643 37,000  Level FlightAware ADS-B
Fri 06:46:32 PM 40.3370 -84.5360 63° Northeast 559 643 37,000  Level FlightAware ADS-B
Fri 06:47:17 PM 40.3890 -84.4010 63° Northeast 559 643 37,000  Level FlightAware ADS-B
Fri 06:47:52 PM 40.4310 -84.2950 62° Northeast 559 643 37,000  Level FlightAware ADS-B
Fri 06:48:42 PM 40.4900 -84.1410 63° Northeast 560 644 37,000  Level FlightAware ADS-B
Fri 06:49:22 PM 40.5360 -84.0200 63° Northeast 559 643 37,000  Level FlightAware ADS-B
Fri 06:50:02 PM 40.5800 -83.8990 64° Northeast 558 642 37,000  Level FlightAware ADS-B
Fri 06:50:47 PM 40.6320 -83.7580 64° Northeast 558 642 37,000  Level FlightAware ADS-B
Fri 06:51:22 PM 40.6710 -83.6520 64° Northeast 560 644 37,000  Level FlightAware ADS-B
Fri 06:52:12 PM 40.7270 -83.5010 64° Northeast 561 646 37,000  Level FlightAware ADS-B
Fri 06:52:52 PM 40.7710 -83.3770 65° Northeast 563 648 37,000  Level FlightAware ADS-B
Fri 06:53:32 PM 40.8170 -83.2530 64° Northeast 564 649 37,000  Level FlightAware ADS-B
Fri 06:54:17 PM 40.8660 -83.1170 64° Northeast 564 649 37,000  Level FlightAware ADS-B
Fri 06:54:57 PM 40.9110 -82.9920 64° Northeast 566 651 37,000  Level FlightAware ADS-B
Fri 06:55:42 PM 40.9640 -82.8450 64° Northeast 567 652 37,000  Level FlightAware ADS-B
Fri 06:56:22 PM 41.0050 -82.7280 65° Northeast 566 651 37,000  Level FlightAware ADS-B
Fri 06:56:57 PM 41.0460 -82.6120 65° Northeast 566 651 37,000  Level FlightAware ADS-B
Fri 06:57:47 PM 41.1000 -82.4600 65° Northeast 568 654 37,000  Level FlightAware ADS-B
Fri 06:58:22 PM 41.1410 -82.3440 65° Northeast 568 654 37,000  Level FlightAware ADS-B
Fri 06:59:12 PM 41.1970 -82.1850 65° Northeast 568 654 37,000  Level FlightAware ADS-B
Fri 06:59:52 PM 41.2390 -82.0640 65° Northeast 568 654 37,000  Level FlightAware ADS-B
Fri 07:00:37 PM 41.2900 -81.9180 65° Northeast 567 652 37,000  Level FlightAware ADS-B
Fri 07:01:17 PM 41.3340 -81.7920 65° Northeast 567 652 37,000  Level FlightAware ADS-B
Fri 07:01:57 PM 41.3770 -81.6670 65° Northeast 566 651 37,000  Level FlightAware ADS-B
Fri 07:02:37 PM 41.4210 -81.5380 66° East 565 650 37,000  Level FlightAware ADS-B
Fri 07:03:22 PM 41.4680 -81.3990 66° East 564 649 37,000  Level FlightAware ADS-B
Fri 07:04:02 PM 41.5130 -81.2690 65° Northeast 562 647 37,000  Level FlightAware ADS-B
Fri 07:04:47 PM 41.5600 -81.1270 66° East 562 647 37,000  Level FlightAware ADS-B
Fri 07:05:27 PM 41.6020 -81.0040 65° Northeast 561 646 37,000  Level FlightAware ADS-B
Fri 07:06:12 PM 41.6500 -80.8590 66° East 560 644 37,000  Level FlightAware ADS-B
Fri 07:06:52 PM 41.6920 -80.7360 65° Northeast 558 642 37,000  Level FlightAware ADS-B
Fri 07:07:32 PM 41.7330 -80.6120 66° East 555 639 37,000  Level FlightAware ADS-B
Fri 07:08:17 PM 41.7790 -80.4710 66° East 550 633 37,000  Level FlightAware ADS-B
Fri 07:08:57 PM 41.8140 -80.3460 69° East 528 608 37,000  Level FlightAware ADS-B
Fri 07:09:42 PM 41.8330 -80.2040 80° East 501 577 37,000  Level FlightAware ADS-B
Fri 07:10:22 PM 41.8340 -80.0840 89° East 486 559 37,000  Level FlightAware ADS-B
Fri 07:11:02 PM 41.8300 -79.9620 92° East 491 565 37,000  Level FlightAware ADS-B
Fri 07:11:47 PM 41.8270 -79.8300 92° East 492 566 37,000  Level FlightAware ADS-B
Fri 07:12:27 PM 41.8230 -79.7000 92° East 488 562 37,000  Level FlightAware ADS-B
Fri 07:13:12 PM 41.8180 -79.5630 93° East 485 558 37,000  Level FlightAware ADS-B
Fri 07:13:47 PM 41.8150 -79.4880 93° East 484 557 37,000  Level FlightAware ADS-B
Fri 07:14:37 PM 41.8100 -79.3350 92° East 482 555 37,000  Level FlightAware ADS-B
Fri 07:15:17 PM 41.8050 -79.2170 93° East 482 555 37,000  Level FlightAware ADS-B
Fri 07:15:57 PM 41.7756 -79.1131 93° East 483 556 37,000  Level Cleveland Center
Fri 07:16:57 PM 41.7689 -78.9322 93° East 483 556 37,000  Level Cleveland Center
Fri 07:17:57 PM 41.7578 -78.7517 95° East 483 556 37,000  Level Cleveland Center
Fri 07:18:57 PM 41.7506 -78.5736 93° East 478 550 37,000  Level Cleveland Center
Fri 07:20:59 PM 41.7364 -78.2097 93° East 489 563 37,000  Level New York Center
Fri 07:27:05 PM 41.6866 -77.0837 93° East 37,000  Level FlightAware ADS-B
Fri 07:27:16 PM 41.6787 -77.0525 109° East 462 532 37,000  Level FlightAware ADS-B
Fri 07:27:50 PM 41.6542 -76.9629 110° East 460 529 37,000  Level FlightAware ADS-B
Fri 07:28:21 PM 41.6306 -76.8787 111° Southeast 461 531 37,000  Level FlightAware ADS-B
Fri 07:28:56 PM 41.6045 -76.7854 110° East 463 533 37,000  Level FlightAware ADS-B
Fri 07:29:26 PM 41.5822 -76.7050 110° East 464 534 37,000  Level FlightAware ADS-B
Fri 07:29:59 PM 41.5580 -76.6185 110° East 465 535 37,000  Level FlightAware ADS-B
Fri 07:30:29 PM 41.5352 -76.5363 110° East 466 536 37,000  Level FlightAware ADS-B
Fri 07:30:59 PM 41.5124 -76.4551 111° Southeast 467 537 37,000  Level FlightAware ADS-B
Fri 07:31:30 PM 41.4892 -76.3725 111° Southeast 469 540 37,000  Level FlightAware ADS-B
Fri 07:32:00 PM 41.4663 -76.2917 111° Southeast 469 540 37,000  Level FlightAware ADS-B
Fri 07:32:31 PM 41.4425 -76.2079 111° Southeast 470 541 37,000 -667 Level FlightAware ADS-B
Fri 07:33:03 PM 41.4174 -76.1208 111° Southeast 476 548 36,300 -1,548 Descending FlightAware ADS-B
Fri 07:33:33 PM 41.3941 -76.0381 111° Southeast 483 556 35,400 -1,700 Descending FlightAware ADS-B
Fri 07:34:03 PM 41.3702 -75.9540 111° Southeast 486 559 34,600 -1,967 Descending FlightAware ADS-B
Fri 07:34:34 PM 41.3457 -75.8673 111° Southeast 488 562 33,400 -2,613 Descending FlightAware ADS-B
Fri 07:35:05 PM 41.3208 -75.7806 111° Southeast 493 567 31,900 -2,951 Descending FlightAware ADS-B
Fri 07:35:35 PM 41.2957 -75.6960 112° Southeast 496 571 30,400 -3,200 Descending FlightAware ADS-B
Fri 07:36:05 PM 41.2682 -75.6112 113° Southeast 501 577 28,700 -3,639 Descending FlightAware ADS-B
Fri 07:36:36 PM 41.2391 -75.5247 114° Southeast 510 587 26,700 -3,541 Descending FlightAware ADS-B
Fri 07:37:06 PM 41.2099 -75.4387 114° Southeast 509 586 25,100 -3,200 Descending FlightAware ADS-B
Fri 07:37:36 PM 41.1807 -75.3532 114° Southeast 505 581 23,500 -2,000 Descending FlightAware ADS-B
Fri 07:38:06 PM 41.1522 -75.2694 114° Southeast 497 572 23,100 -492 Descending FlightAware ADS-B
Fri 07:38:37 PM 41.1232 -75.1848 114° Southeast 503 579 23,000 -95 Descending FlightAware ADS-B
Fri 07:39:09 PM 41.0919 -75.0943 115° Southeast 505 581 23,000  Level FlightAware ADS-B
Fri 07:39:39 PM 41.0640 -75.0121 114° Southeast 468 539 23,000  Level FlightAware ADS-B
Fri 07:40:10 PM 41.0374 -74.9350 115° Southeast 439 505 23,000 -120 Level FlightAware ADS-B
Fri 07:40:29 PM 41.0226 -74.8893 113° Southeast 427 491 22,900 -818 Descending FlightAware ADS-B
Fri 07:40:54 PM 41.0087 -74.8260 106° East 417 480 22,400 -1,263 Descending FlightAware ADS-B
Fri 07:41:07 PM 41.0046 -74.7951 100° East 412 474 22,100 -1,263 Descending FlightAware ADS-B
Fri 07:41:13 PM 41.0037 -74.7797 94° East 409 471 22,000 -800 Descending FlightAware ADS-B
Fri 07:41:22 PM 41.0044 -74.7572 88° East 407 468 21,900 -1,000 Descending FlightAware ADS-B
Fri 07:41:31 PM 41.0073 -74.7347 80° East 406 467 21,700 -1,385 Descending FlightAware ADS-B
Fri 07:42:01 PM 41.0228 -74.6620 74° East 405 466 21,000 -689 Descending FlightAware ADS-B
Fri 07:42:32 PM 41.0384 -74.5905 74° East 400 460 21,000  Level FlightAware ADS-B
Fri 07:43:02 PM 41.0538 -74.5191 74° East 396 456 21,000  Level FlightAware ADS-B
Fri 07:43:32 PM 41.0691 -74.4487 74° East 401 461 21,000  Level FlightAware ADS-B
Fri 07:43:45 PM 41.0751 -74.4188 75° East 401 461 21,000  Level FlightAware ADS-B
Fri 07:44:00 PM 41.0777 -74.3811 85° East 396 456 21,000  Level FlightAware ADS-B
Fri 07:44:15 PM 41.0753 -74.3452 95° East 389 448 21,000  Level FlightAware ADS-B
Fri 07:44:28 PM 41.0698 -74.3174 105° East 382 440 21,000  Level FlightAware ADS-B
Fri 07:44:38 PM 41.0630 -74.2956 112° Southeast 375 432 21,000  Level FlightAware ADS-B
Fri 07:44:46 PM 41.0564 -74.2796 119° Southeast 369 425 21,000 -353 Level FlightAware ADS-B
Fri 07:44:55 PM 41.0480 -74.2630 124° Southeast 362 417 20,900 -632 Descending FlightAware ADS-B
Fri 07:45:05 PM 41.0365 -74.2453 131° Southeast 354 407 20,800 -714 Descending FlightAware ADS-B
Fri 07:45:37 PM 40.9989 -74.2020 139° Southeast 340 391 20,400 -923 Descending FlightAware ADS-B
Fri 07:45:57 PM 40.9747 -74.1758 141° Southeast 333 383 20,000 -941 Descending FlightAware ADS-B
Fri 07:46:28 PM 40.9369 -74.1385 143° Southeast 317 365 19,600 -667 Descending FlightAware ADS-B
Fri 07:47:00 PM 40.8999 -74.1028 144° Southeast 302 348 19,300 -800 Descending FlightAware ADS-B
Fri 07:47:13 PM 40.8859 -74.0898 145° Southeast 300 345 19,000 -1,333 Descending FlightAware ADS-B
Fri 07:47:27 PM 40.8697 -74.0743 144° Southeast 299 344 18,700 -1,263 Descending FlightAware ADS-B
Fri 07:47:32 PM 40.8642 -74.0693 145° Southeast 296 341 18,600 -1,200 Descending FlightAware ADS-B
Fri 07:47:37 PM 40.8578 -74.0643 149° Southeast 292 336 18,500 -1,273 Descending FlightAware ADS-B
Fri 07:48:05 PM 40.8245 -74.0438 155° Southeast 286 329 17,900 -1,263 Descending FlightAware ADS-B
Fri 07:48:15 PM 40.8128 -74.0372 157° South 286 329 17,700 -1,355 Descending FlightAware ADS-B
Fri 07:48:36 PM 40.7871 -74.0233 158° South 287 330 17,200 -1,600 Descending FlightAware ADS-B
Fri 07:48:45 PM 40.7754 -74.0171 158° South 286 329 16,900 -1,548 Descending FlightAware ADS-B
Fri 07:49:07 PM 40.7486 -74.0029 158° South 286 329 16,400 -840 Descending FlightAware ADS-B
Fri 07:49:35 PM 40.7139 -73.9849 159° South 286 329 16,200 -610 Descending FlightAware ADS-B
Fri 07:50:06 PM 40.6767 -73.9651 158° South 276 318 15,800 -774 Descending FlightAware ADS-B
Fri 07:50:37 PM 40.6408 -73.9457 158° South 258 297 15,400 -738 Descending FlightAware ADS-B
Fri 07:51:11 PM 40.6039 -73.9253 157° South 249 287 15,000 -1,015 Descending FlightAware ADS-B
Fri 07:51:42 PM 40.5710 -73.9077 158° South 250 288 14,300 -774 Descending FlightAware ADS-B
Fri 07:52:13 PM 40.5380 -73.8901 158° South 254 292 14,200 -118 Descending FlightAware ADS-B
Fri 07:52:33 PM 40.5155 -73.8783 158° South 256 295 14,200  Level FlightAware ADS-B
Fri 07:53:04 PM 40.4814 -73.8603 158° South 258 297 14,200  Level FlightAware ADS-B
Fri 07:53:35 PM 40.4480 -73.8427 158° South 256 295 14,200  Level FlightAware ADS-B
Fri 07:54:04 PM 40.4167 -73.8261 158° South 251 289 14,200  Level FlightAware ADS-B
Fri 07:54:11 PM 40.4091 -73.8225 160° South 246 283 14,200  Level FlightAware ADS-B
Fri 07:54:15 PM 40.4039 -73.8211 168° South 241 277 14,200  Level FlightAware ADS-B
Fri 07:54:22 PM 40.3969 -73.8206 177° South 235 270 14,200  Level FlightAware ADS-B
Fri 07:54:30 PM 40.3882 -73.8226 190° South 230 265 14,200 -182 Level FlightAware ADS-B
Fri 07:54:55 PM 40.3633 -73.8359 202° Southwest 233 268 14,100 -750 Descending FlightAware ADS-B
Fri 07:55:26 PM 40.3337 -73.8541 205° Southwest 230 265 13,500 -1,250 Descending FlightAware ADS-B
Fri 07:55:43 PM 40.3173 -73.8640 205° Southwest 229 264 13,100 -1,304 Descending FlightAware ADS-B
Fri 07:55:49 PM 40.3113 -73.8670 201° Southwest 231 266 13,000 -1,200 Descending FlightAware ADS-B
Fri 07:55:53 PM 40.3071 -73.8683 193° South 233 268 12,900 -1,333 Descending FlightAware ADS-B
Fri 07:55:58 PM 40.3011 -73.8688 184° South 236 272 12,800 -1,200 Descending FlightAware ADS-B
Fri 07:56:03 PM 40.2961 -73.8683 176° South 239 275 12,700 -1,200 Descending FlightAware ADS-B
Fri 07:56:08 PM 40.2908 -73.8665 165° South 243 280 12,600 -1,091 Descending FlightAware ADS-B
Fri 07:56:14 PM 40.2844 -73.8625 155° Southeast 251 289 12,500 -1,091 Descending FlightAware ADS-B
Fri 07:56:19 PM 40.2793 -73.8575 143° Southeast 257 296 12,400 -1,091 Descending FlightAware ADS-B
Fri 07:56:25 PM 40.2745 -73.8505 132° Southeast 265 305 12,300 -600 Descending FlightAware ADS-B
Fri 07:56:29 PM 40.2718 -73.8450 123° Southeast 269 310 12,300 -353 Level FlightAware ADS-B
Fri 07:56:42 PM 40.2659 -73.8254 112° Southeast 277 319 12,200 -682 Descending FlightAware ADS-B
Fri 07:57:13 PM 40.2549 -73.7742 106° East 288 331 11,800 -833 Descending FlightAware ADS-B
Fri 07:57:18 PM 40.2539 -73.7648 98° East 296 341 11,700 -600 Descending FlightAware ADS-B
Fri 07:57:33 PM 40.2568 -73.7389 82° East 304 350 11,600 -522 Descending FlightAware ADS-B
Fri 07:57:41 PM 40.2620 -73.7258 63° Northeast 312 359 11,500 -923 Descending FlightAware ADS-B
Fri 07:57:46 PM 40.2664 -73.7180 54° Northeast 313 360 11,400 -857 Descending FlightAware ADS-B
Fri 07:58:16 PM 40.2963 -73.6752 48° Northeast 315 362 11,000 -774 Descending FlightAware ADS-B
Fri 07:58:48 PM 40.3284 -73.6309 46° Northeast 314 361 10,600 -783 Descending FlightAware ADS-B
Fri 07:59:02 PM 40.3430 -73.6124 44° Northeast 312 359 10,400 -828 Descending FlightAware ADS-B
Fri 07:59:17 PM 40.3613 -73.5971 32° Northeast 308 354 10,200 -750 Descending FlightAware ADS-B
Fri 07:59:34 PM 40.3815 -73.5822 29° Northeast 308 354 10,000 -727 Descending FlightAware ADS-B
Fri 07:59:50 PM 40.4012 -73.5674 30° Northeast 305 351 9,800 -774 Descending FlightAware ADS-B
Fri 08:00:05 PM 40.4199 -73.5537 29° Northeast 304 350 9,600 -1,000 Descending FlightAware ADS-B
Fri 08:00:20 PM 40.4391 -73.5394 30° Northeast 302 348 9,300 -938 Descending FlightAware ADS-B
Fri 08:00:37 PM 40.4585 -73.5251 29° Northeast 300 345 9,100 -727 Descending FlightAware ADS-B
Fri 08:00:53 PM 40.4781 -73.5109 29° Northeast 300 345 8,900 -706 Descending FlightAware ADS-B
Fri 08:01:11 PM 40.4999 -73.4948 29° Northeast 300 345 8,700 -706 Descending FlightAware ADS-B
Fri 08:01:27 PM 40.5200 -73.4800 29° Northeast 301 346 8,500 -882 Descending FlightAware ADS-B
Fri 08:01:45 PM 40.5414 -73.4641 29° Northeast 300 345 8,200 -1,034 Descending FlightAware ADS-B
Fri 08:01:56 PM 40.5550 -73.4539 30° Northeast 292 336 8,000 -828 Descending FlightAware ADS-B
Fri 08:02:14 PM 40.5753 -73.4387 30° Northeast 276 318 7,800 -857 Descending FlightAware ADS-B
Fri 08:02:31 PM 40.5940 -73.4243 30° Northeast 268 308 7,500 -857 Descending FlightAware ADS-B
Fri 08:02:49 PM 40.6125 -73.4095 31° Northeast 261 300 7,300 -686 Descending FlightAware ADS-B
Fri 08:03:06 PM 40.6293 -73.3959 32° Northeast 256 295 7,100 -706 Descending FlightAware ADS-B
Fri 08:03:23 PM 40.6469 -73.3818 31° Northeast 256 295 6,900 -727 Descending FlightAware ADS-B
Fri 08:03:39 PM 40.6623 -73.3696 31° Northeast 256 295 6,700 -712 Descending FlightAware ADS-B
Fri 08:04:22 PM 40.7050 -73.3370 30° Northeast 255 293 6,200 -621 Descending FlightAware ADS-B
Fri 08:04:37 PM 40.7200 -73.3260 29° Northeast 252 290 6,100 -400 Descending FlightAware ADS-B
Fri 08:05:07 PM 40.7520 -73.3020 30° Northeast 255 293 5,900 -450 Descending FlightAware ADS-B
Fri 08:05:17 PM 40.7610 -73.2960 27° Northeast 252 290 5,800 -600 Descending FlightAware ADS-B
Fri 08:05:27 PM 40.7740 -73.2930 10° North 240 276 5,700 -533 Descending FlightAware ADS-B
Fri 08:06:02 PM 40.7970 -73.3140 325° Northwest 175 201 5,400 -600 Descending FlightAware ADS-B
Fri 08:06:17 PM 40.7980 -73.3320 274° West 165 190 5,200 -400 Descending FlightAware ADS-B
Fri 08:06:32 PM 40.7980 -73.3430 270° West 161 185 5,200  Level FlightAware ADS-B
Fri 08:06:57 PM 40.7980 -73.3690 270° West 162 186 5,200 -400 Level FlightAware ADS-B
Fri 08:07:17 PM 40.7980 -73.3890 270° West 159 183 4,900 -900 Descending FlightAware ADS-B
Fri 08:07:37 PM 40.7960 -73.4050 261° West 136 157 4,600 -738 Descending FlightAware ADS-B
Fri 08:08:22 PM 40.7710 -73.3910 157° South 209 241 4,100 -720 Descending FlightAware ADS-B
Fri 08:08:27 PM 40.7700 -73.3860 105° East 224 258 4,000 -900 Descending FlightAware ADS-B
Fri 08:09:02 PM 40.7920 -73.3460 54° Northeast 256 295 3,500 -738 Descending FlightAware ADS-B
Fri 08:09:32 PM 40.8210 -73.3260 28° Northeast 252 290 3,200 -257 Descending FlightAware ADS-B
Fri 08:10:12 PM 40.8640 -73.3060 19° North 252 290 3,200  Level FlightAware ADS-B
Fri 08:10:27 PM 40.8680 -73.3520 277° West 187 215 3,200 -600 Level FlightAware ADS-B
Fri 08:10:52 PM 40.8780 -73.3780 297° West 186 214 2,800 -982 Descending FlightAware ADS-B
Fri 08:11:22 PM 40.8890 -73.4070 297° West 185 213 2,300 -600 Descending FlightAware ADS-B
Fri 08:11:52 PM 40.8970 -73.4380 289° West 155 178 2,200 -109 Descending FlightAware ADS-B
Fri 08:12:17 PM 40.8940 -73.4600 260° West 147 169 2,200  Level FlightAware ADS-B
Fri 08:12:47 PM 40.8880 -73.4840 252° West 142 163 2,200  Level FlightAware ADS-B

Login

Don't have an account? Register now (free) for customized features, flight alerts, and more!